createdAt,value
2022-12-07T00:01:07.815Z,3.95
2022-12-07T00:03:36.187Z,3.92
2022-12-07T00:06:06.561Z,3.87
2022-12-07T00:08:35.340Z,3.82
2022-12-07T00:11:05.779Z,3.79
2022-12-07T00:13:34.277Z,3.77
2022-12-07T00:16:03.793Z,3.79
2022-12-07T00:18:31.534Z,3.74
2022-12-07T00:21:02.237Z,3.76
2022-12-07T00:23:29.956Z,3.82
2022-12-07T00:25:57.728Z,3.72
2022-12-07T00:28:26.640Z,3.78
2022-12-07T00:30:54.179Z,3.81
2022-12-07T00:33:21.742Z,3.69
2022-12-07T00:35:56.624Z,3.82
2022-12-07T00:38:24.450Z,3.80
2022-12-07T00:40:56.844Z,3.85
2022-12-07T00:43:25.928Z,3.86
2022-12-07T00:45:53.810Z,3.79
2022-12-07T00:48:22.253Z,3.77
2022-12-07T00:50:50.411Z,3.67
2022-12-07T00:53:18.729Z,3.70
2022-12-07T00:55:47.179Z,3.60
2022-12-07T00:58:14.806Z,3.62
2022-12-07T01:00:44.840Z,3.73
2022-12-07T01:03:14.707Z,3.68
2022-12-07T01:05:50.640Z,3.67
2022-12-07T01:08:18.282Z,3.63
2022-12-07T01:10:46.019Z,3.56
2022-12-07T01:13:13.962Z,3.62
2022-12-07T01:15:43.552Z,3.63
2022-12-07T01:18:12.092Z,3.60
2022-12-07T01:20:39.707Z,3.67
2022-12-07T01:23:07.550Z,3.71
2022-12-07T01:25:35.203Z,3.73
2022-12-07T01:28:02.829Z,3.73
2022-12-07T01:30:30.449Z,3.69
2022-12-07T01:32:59.379Z,3.75
2022-12-07T01:35:26.994Z,3.83
2022-12-07T01:37:55.669Z,3.85
2022-12-07T01:40:23.302Z,3.73
2022-12-07T01:42:50.883Z,3.82
2022-12-07T01:45:45.407Z,3.77
2022-12-07T01:48:19.388Z,3.85
2022-12-07T01:50:51.608Z,3.78
2022-12-07T01:53:20.019Z,3.80
2022-12-07T01:55:51.735Z,3.70
2022-12-07T01:58:20.687Z,3.78
2022-12-07T02:00:48.512Z,3.77
2022-12-07T02:03:21.609Z,3.69
2022-12-07T02:05:51.081Z,3.80
2022-12-07T02:08:19.515Z,3.71
2022-12-07T02:10:47.409Z,3.73
2022-12-07T02:13:18.821Z,3.91
2022-12-07T02:16:07.078Z,3.75
2022-12-07T02:18:49.256Z,3.75
2022-12-07T02:21:27.103Z,3.80
2022-12-07T02:24:17.489Z,3.70
2022-12-07T02:27:24.298Z,3.72
2022-12-07T02:30:00.921Z,3.73
2022-12-07T02:32:36.132Z,3.63
2022-12-07T02:35:08.280Z,3.67
2022-12-07T02:37:42.086Z,3.63
2022-12-07T02:40:15.765Z,3.66
2022-12-07T02:42:47.793Z,3.56
2022-12-07T02:45:22.060Z,3.59
2022-12-07T02:47:52.771Z,3.53
2022-12-07T02:50:21.708Z,3.59
2022-12-07T02:52:49.659Z,3.61
2022-12-07T02:55:21.830Z,3.60
2022-12-07T02:58:07.462Z,3.53
2022-12-07T03:00:45.304Z,3.51
2022-12-07T03:03:16.104Z,3.54
2022-12-07T03:06:06.419Z,3.48
2022-12-07T03:08:49.959Z,3.55
2022-12-07T03:11:23.622Z,3.55
2022-12-07T03:13:57.980Z,3.53
2022-12-07T03:16:31.379Z,3.60
2022-12-07T03:19:02.443Z,3.59
2022-12-07T03:21:36.602Z,3.65
2022-12-07T03:24:09.682Z,3.67
2022-12-07T03:26:41.038Z,3.68
2022-12-07T03:29:13.051Z,3.56
2022-12-07T03:31:47.373Z,3.60
2022-12-07T03:34:21.708Z,3.62
2022-12-07T03:36:54.716Z,3.68
2022-12-07T03:39:30.131Z,3.56
2022-12-07T03:42:01.449Z,3.59
2022-12-07T03:44:29.523Z,3.52
2022-12-07T03:47:03.676Z,3.69
2022-12-07T03:49:39.431Z,3.65
2022-12-07T03:52:14.536Z,3.71
2022-12-07T03:54:47.376Z,3.62
2022-12-07T03:57:15.889Z,3.57
2022-12-07T03:59:44.799Z,3.65
2022-12-07T04:02:15.730Z,3.67
2022-12-07T04:04:44.835Z,3.84
2022-12-07T04:07:13.799Z,3.93
2022-12-07T04:09:41.357Z,3.90
2022-12-07T04:12:09.530Z,3.78
2022-12-07T04:14:37.277Z,3.75
2022-12-07T04:17:04.934Z,3.82
2022-12-07T04:19:35.962Z,3.67
2022-12-07T04:22:05.613Z,3.57
2022-12-07T04:24:33.791Z,3.77
2022-12-07T04:27:01.373Z,3.61
2022-12-07T04:29:29.161Z,3.53
2022-12-07T04:31:56.929Z,3.58
2022-12-07T04:34:24.552Z,3.62
2022-12-07T04:36:53.762Z,3.55
2022-12-07T04:39:24.582Z,3.60
2022-12-07T04:41:52.591Z,3.60
2022-12-07T04:44:20.701Z,3.54
2022-12-07T04:46:48.765Z,3.54
2022-12-07T04:49:17.627Z,3.55
2022-12-07T04:51:47.415Z,3.55
2022-12-07T04:54:17.860Z,3.48
2022-12-07T04:56:45.824Z,3.50
2022-12-07T04:59:14.291Z,3.46
2022-12-07T05:01:42.168Z,3.39
2022-12-07T05:04:10.610Z,3.52
2022-12-07T05:06:38.210Z,3.48
2022-12-07T05:09:05.969Z,3.51
2022-12-07T05:11:40.650Z,3.36
2022-12-07T05:14:11.776Z,3.39
2022-12-07T05:16:39.916Z,3.31
2022-12-07T05:19:08.146Z,3.36
2022-12-07T05:21:36.159Z,3.43
2022-12-07T05:24:04.816Z,3.42
2022-12-07T05:26:32.704Z,3.37
2022-12-07T05:29:01.773Z,3.53
2022-12-07T05:31:29.910Z,3.51
2022-12-07T05:33:57.617Z,3.48
2022-12-07T05:36:25.344Z,3.52
2022-12-07T05:38:52.956Z,3.50
2022-12-07T05:41:38.718Z,3.51
2022-12-07T05:44:08.365Z,3.48
2022-12-07T05:46:36.198Z,3.50
2022-12-07T05:49:04.265Z,3.51
2022-12-07T05:51:32.133Z,3.46
2022-12-07T05:53:59.658Z,3.52
2022-12-07T05:56:27.556Z,3.43
2022-12-07T05:59:12.892Z,3.72
2022-12-07T06:01:42.125Z,3.75
2022-12-07T06:04:09.783Z,3.72
2022-12-07T06:06:37.568Z,3.77
2022-12-07T06:09:05.859Z,3.75
2022-12-07T06:11:51.296Z,3.90
2022-12-07T06:14:18.860Z,3.84
2022-12-07T06:16:47.942Z,3.96
2022-12-07T06:19:15.595Z,4.02
2022-12-07T06:21:43.654Z,3.99
2022-12-07T06:24:13.525Z,4.06
2022-12-07T06:26:41.439Z,4.23
2022-12-07T06:29:11.357Z,4.05
2022-12-07T06:31:39.621Z,4.25
2022-12-07T06:34:11.833Z,3.97
2022-12-07T06:36:39.775Z,3.91
2022-12-07T06:39:08.764Z,4.15
2022-12-07T06:41:36.669Z,4.03
2022-12-07T06:44:04.447Z,3.86
2022-12-07T06:46:32.436Z,3.82
2022-12-07T06:49:00.120Z,3.71
2022-12-07T06:51:29.213Z,3.68
2022-12-07T06:53:58.813Z,3.64
2022-12-07T06:56:26.428Z,3.64
2022-12-07T06:58:54.002Z,3.61
2022-12-07T07:01:21.875Z,3.60
2022-12-07T07:03:49.503Z,3.57
2022-12-07T07:06:17.277Z,3.58
2022-12-07T07:08:46.252Z,3.55
2022-12-07T07:11:13.932Z,3.61
2022-12-07T07:13:41.498Z,3.62
2022-12-07T07:16:09.883Z,3.68
2022-12-07T07:18:37.557Z,3.77
2022-12-07T07:21:05.868Z,3.76
2022-12-07T07:23:33.489Z,3.71
2022-12-07T07:26:02.487Z,3.68
2022-12-07T07:28:30.134Z,3.69
2022-12-07T07:30:57.874Z,3.71
2022-12-07T07:33:25.800Z,3.89
2022-12-07T07:35:53.455Z,3.86
2022-12-07T07:38:21.563Z,3.82
2022-12-07T07:40:49.195Z,3.87
2022-12-07T07:43:18.303Z,3.84
2022-12-07T07:45:46.215Z,4.01
2022-12-07T07:48:13.893Z,3.95
2022-12-07T07:50:41.427Z,3.85
2022-12-07T07:53:09.289Z,3.81
2022-12-07T07:55:36.925Z,3.81
2022-12-07T07:58:04.530Z,3.86
2022-12-07T08:00:33.898Z,3.78
2022-12-07T08:03:01.456Z,3.81
2022-12-07T08:05:29.029Z,3.87
2022-12-07T08:07:56.760Z,3.94
2022-12-07T08:10:24.368Z,4.07
2022-12-07T08:13:09.577Z,4.01
2022-12-07T08:15:40.199Z,4.15
2022-12-07T08:18:08.598Z,4.06
2022-12-07T08:20:38.711Z,4.05
2022-12-07T08:23:07.183Z,4.05
2022-12-07T08:25:35.491Z,4.35
2022-12-07T08:28:03.110Z,4.43
2022-12-07T08:30:31.527Z,4.24
2022-12-07T08:33:00.588Z,4.59
2022-12-07T08:35:28.328Z,4.82
2022-12-07T08:37:56.228Z,4.57
2022-12-07T08:40:23.959Z,4.71
2022-12-07T08:42:51.746Z,4.78
2022-12-07T08:45:26.666Z,4.78
2022-12-07T08:47:59.401Z,4.21
2022-12-07T08:50:28.847Z,4.68
2022-12-07T08:52:58.528Z,4.63
2022-12-07T08:55:26.822Z,4.55
2022-12-07T08:57:54.621Z,4.81
2022-12-07T09:00:22.600Z,4.61
2022-12-07T09:02:50.203Z,4.54
2022-12-07T09:05:17.983Z,4.46
2022-12-07T09:07:49.645Z,4.55
2022-12-07T09:10:17.484Z,4.71
2022-12-07T09:12:45.127Z,4.97
2022-12-07T09:15:12.673Z,4.98
2022-12-07T09:17:40.328Z,4.92
2022-12-07T09:20:09.185Z,4.99
2022-12-07T09:22:37.000Z,5.05
2022-12-07T09:25:06.812Z,5.27
2022-12-07T09:27:34.452Z,5.07
2022-12-07T09:30:03.453Z,5.12
2022-12-07T09:32:31.166Z,4.94
2022-12-07T09:34:58.723Z,5.12
2022-12-07T09:37:26.425Z,5.23
2022-12-07T09:39:53.974Z,5.36
2022-12-07T09:42:31.113Z,5.23
2022-12-07T09:44:59.947Z,5.38
2022-12-07T09:47:28.412Z,5.45
2022-12-07T09:50:01.919Z,5.69
2022-12-07T09:52:37.075Z,5.80
2022-12-07T09:55:12.464Z,5.95
2022-12-07T09:57:41.719Z,5.69
2022-12-07T10:00:15.612Z,5.43
2022-12-07T10:02:45.818Z,5.33
2022-12-07T10:05:23.607Z,5.45
2022-12-07T10:07:52.037Z,5.52
2022-12-07T10:10:25.324Z,5.40
2022-12-07T10:13:00.542Z,5.61
2022-12-07T10:15:50.423Z,5.51
2022-12-07T10:18:21.744Z,5.44
2022-12-07T10:20:50.140Z,5.42
2022-12-07T10:23:19.302Z,5.64
2022-12-07T10:25:49.200Z,5.42
2022-12-07T10:28:20.259Z,5.56
2022-12-07T10:30:53.962Z,5.72
2022-12-07T10:33:34.336Z,5.83
2022-12-07T10:36:11.163Z,5.72
2022-12-07T10:38:47.034Z,5.72
2022-12-07T10:41:14.743Z,5.71
2022-12-07T10:43:54.481Z,5.55
2022-12-07T10:46:58.361Z,5.65
2022-12-07T10:49:58.458Z,5.86
2022-12-07T10:52:50.198Z,5.78
2022-12-07T10:55:25.587Z,5.68
2022-12-07T10:58:16.886Z,5.68
2022-12-07T11:00:56.822Z,5.58
2022-12-07T11:03:42.896Z,5.47
2022-12-07T11:06:24.703Z,5.43
2022-12-07T11:09:06.251Z,5.41
2022-12-07T11:11:39.201Z,5.48
2022-12-07T11:14:22.083Z,5.63
2022-12-07T11:16:58.807Z,5.60
2022-12-07T11:19:42.895Z,5.88
2022-12-07T11:22:17.834Z,5.71
2022-12-07T11:24:51.799Z,5.86
2022-12-07T11:27:30.983Z,6.29
2022-12-07T11:30:14.552Z,6.38
2022-12-07T11:32:58.006Z,6.21
2022-12-07T11:35:38.152Z,6.29
2022-12-07T11:38:16.095Z,6.60
2022-12-07T11:40:47.398Z,5.99
2022-12-07T11:43:23.361Z,6.15
2022-12-07T11:45:56.714Z,6.24
2022-12-07T11:48:34.077Z,6.21
2022-12-07T11:51:03.535Z,6.31
2022-12-07T11:53:37.260Z,6.51
2022-12-07T11:56:11.437Z,6.48
2022-12-07T11:58:50.053Z,6.41
2022-12-07T12:01:31.600Z,6.87
2022-12-07T12:04:15.709Z,6.83
2022-12-07T12:06:44.789Z,7.00
2022-12-07T12:15:30.075Z,6.59
2022-12-07T12:18:11.542Z,6.73
2022-12-07T12:20:45.387Z,6.98
2022-12-07T12:23:18.680Z,7.02
2022-12-07T12:25:49.673Z,6.87
2022-12-07T12:28:31.817Z,6.58
2022-12-07T12:31:12.803Z,6.68
2022-12-07T12:33:45.888Z,6.72
2022-12-07T12:36:27.334Z,6.56
2022-12-07T12:39:15.417Z,6.70
2022-12-07T12:42:20.063Z,6.76
2022-12-07T12:45:18.841Z,6.44
2022-12-07T12:47:59.268Z,6.44
2022-12-07T12:50:30.264Z,6.54
2022-12-07T12:53:03.963Z,6.54
2022-12-07T12:56:00.240Z,6.73
2022-12-07T12:58:42.109Z,6.67
2022-12-07T13:01:44.604Z,6.80
2022-12-07T13:04:42.364Z,6.89
2022-12-07T13:07:16.465Z,6.99
2022-12-07T13:09:47.312Z,6.86
2022-12-07T13:12:18.065Z,6.89
2022-12-07T13:14:56.429Z,7.52
2022-12-07T13:18:01.792Z,8.90
2022-12-07T13:20:57.255Z,10.39
2022-12-07T13:23:27.873Z,9.38
2022-12-07T13:26:18.222Z,9.56
2022-12-07T13:28:48.337Z,8.68
2022-12-07T13:31:35.258Z,7.80
2022-12-07T13:34:04.107Z,8.69
2022-12-07T13:36:36.979Z,9.37
2022-12-07T13:39:21.009Z,8.95
2022-12-07T13:41:54.384Z,10.01
2022-12-07T13:44:22.127Z,11.59
2022-12-07T13:46:56.761Z,10.19
2022-12-07T13:49:26.221Z,9.77
2022-12-07T13:51:54.856Z,8.88
2022-12-07T13:54:23.934Z,8.39
2022-12-07T13:56:55.379Z,9.21
2022-12-07T13:59:25.745Z,8.75
2022-12-07T14:01:54.862Z,7.71
2022-12-07T14:04:33.232Z,7.20
2022-12-07T14:07:02.702Z,7.10
2022-12-07T14:09:31.471Z,6.84
2022-12-07T14:12:00.810Z,6.85
2022-12-07T14:14:36.256Z,6.56
2022-12-07T14:17:14.875Z,6.45
2022-12-07T14:19:48.972Z,6.49
2022-12-07T14:22:29.916Z,6.45
2022-12-07T14:25:16.055Z,6.55
2022-12-07T14:27:59.059Z,6.27
2022-12-07T14:30:29.289Z,6.35
2022-12-07T14:33:01.012Z,6.18
2022-12-07T14:35:29.324Z,6.19
2022-12-07T14:37:57.007Z,6.17
2022-12-07T14:40:27.435Z,6.27
2022-12-07T14:42:59.343Z,6.14
2022-12-07T14:45:27.169Z,5.95
2022-12-07T14:53:37.613Z,5.97
2022-12-07T14:56:07.000Z,5.75
2022-12-07T14:58:36.065Z,6.02
2022-12-07T15:01:03.955Z,6.03
2022-12-07T15:03:31.818Z,5.88
2022-12-07T15:05:59.901Z,5.79
2022-12-07T15:08:27.606Z,5.63
2022-12-07T15:10:55.234Z,5.70
2022-12-07T15:13:40.287Z,5.60
2022-12-07T15:16:13.142Z,5.79
2022-12-07T15:18:45.381Z,5.72
2022-12-07T15:21:20.805Z,5.48
2022-12-07T15:23:49.107Z,5.38
2022-12-07T15:26:16.789Z,5.31
2022-12-07T15:28:44.418Z,5.27
2022-12-07T15:31:46.576Z,5.04
2022-12-07T15:34:03.256Z,4.99
2022-12-07T15:36:32.959Z,4.85
2022-12-07T15:39:16.110Z,4.81
2022-12-07T15:41:43.815Z,4.61
2022-12-07T15:44:31.513Z,4.56
2022-12-07T15:47:01.127Z,4.65
2022-12-07T15:49:29.682Z,4.72
2022-12-07T15:51:57.728Z,4.66
2022-12-07T15:54:27.092Z,4.55
2022-12-07T15:56:55.444Z,4.54
2022-12-07T15:59:23.206Z,4.57
2022-12-07T16:01:51.061Z,4.64
2022-12-07T16:04:20.171Z,4.62
2022-12-07T16:06:47.879Z,4.41
2022-12-07T16:09:15.448Z,4.36
2022-12-07T16:11:43.055Z,4.50
2022-12-07T16:14:10.967Z,4.46
2022-12-07T16:16:41.064Z,4.29
2022-12-07T16:19:08.874Z,4.24
2022-12-07T16:21:37.798Z,4.07
2022-12-07T16:24:06.335Z,3.93
2022-12-07T16:26:34.301Z,3.82
2022-12-07T16:29:01.995Z,3.80
2022-12-07T16:31:30.004Z,3.79
2022-12-07T16:33:59.475Z,3.62
2022-12-07T16:36:55.585Z,3.53
2022-12-07T16:39:19.150Z,3.64
2022-12-07T16:41:47.039Z,3.56
2022-12-07T16:44:15.811Z,3.53
2022-12-07T16:46:44.082Z,3.32
2022-12-07T16:49:14.754Z,3.20
2022-12-07T16:51:43.814Z,3.04
2022-12-07T16:54:12.759Z,3.08
2022-12-07T16:56:42.369Z,2.98
2022-12-07T16:59:10.146Z,2.94
2022-12-07T17:01:37.896Z,2.93
2022-12-07T17:04:06.170Z,2.91
2022-12-07T17:06:34.227Z,2.85
2022-12-07T17:09:01.856Z,2.78
2022-12-07T17:11:32.732Z,2.85
2022-12-07T17:14:19.292Z,2.80
2022-12-07T17:16:47.209Z,2.86
2022-12-07T17:19:16.723Z,2.82
2022-12-07T17:21:45.302Z,2.87
2022-12-07T17:24:16.395Z,2.87
2022-12-07T17:26:45.860Z,2.79
2022-12-07T17:29:17.641Z,2.81
2022-12-07T17:31:50.869Z,2.79
2022-12-07T17:34:20.417Z,2.79
2022-12-07T17:36:48.138Z,2.78
2022-12-07T17:39:17.913Z,2.79
2022-12-07T17:42:03.478Z,2.87
2022-12-07T17:44:33.845Z,2.74
2022-12-07T17:47:03.856Z,2.90
2022-12-07T17:49:31.698Z,2.84
2022-12-07T17:52:16.967Z,2.83
2022-12-07T17:54:44.800Z,2.76
2022-12-07T17:57:12.482Z,2.72
2022-12-07T17:59:41.612Z,2.73
2022-12-07T18:02:11.395Z,2.76
2022-12-07T18:04:40.097Z,2.74
2022-12-07T18:07:08.052Z,2.65
2022-12-07T18:09:36.132Z,2.66
2022-12-07T18:12:04.009Z,2.68
2022-12-07T18:14:31.675Z,2.64
2022-12-07T18:17:00.730Z,2.70
2022-12-07T18:19:28.600Z,2.72
2022-12-07T18:21:56.168Z,2.81
2022-12-07T18:24:23.806Z,2.86
2022-12-07T18:26:53.201Z,2.85
2022-12-07T18:29:20.898Z,2.79
2022-12-07T18:31:48.564Z,2.92
2022-12-07T18:34:20.282Z,2.89
2022-12-07T18:36:50.528Z,2.88
2022-12-07T18:39:19.339Z,2.81
2022-12-07T18:41:48.440Z,2.78
2022-12-07T18:44:16.916Z,2.69
2022-12-07T18:46:44.577Z,2.66
2022-12-07T18:49:13.065Z,2.72
2022-12-07T18:51:42.610Z,2.67
2022-12-07T18:54:10.593Z,2.67
2022-12-07T18:56:38.424Z,2.66
2022-12-07T18:59:23.915Z,2.55
2022-12-07T19:01:53.478Z,2.64
2022-12-07T19:04:21.430Z,2.66
2022-12-07T19:06:51.915Z,2.88
2022-12-07T19:09:20.314Z,2.72
2022-12-07T19:11:51.933Z,2.59
2022-12-07T19:14:23.310Z,2.77
2022-12-07T19:16:52.522Z,2.64
2022-12-07T19:19:21.683Z,2.78
2022-12-07T19:21:51.327Z,2.65
2022-12-07T19:24:23.535Z,2.66
2022-12-07T19:26:51.912Z,2.86
2022-12-07T19:29:19.767Z,2.80
2022-12-07T19:31:47.617Z,2.70
2022-12-07T19:35:06.066Z,2.61
2022-12-07T19:37:35.803Z,2.60
2022-12-07T19:40:03.462Z,2.59
2022-12-07T19:42:35.428Z,2.65
2022-12-07T19:45:03.764Z,2.60
2022-12-07T19:47:31.640Z,2.62
2022-12-07T19:49:59.318Z,2.67
2022-12-07T19:52:29.109Z,2.67
2022-12-07T19:55:01.429Z,2.71
2022-12-07T19:57:29.403Z,2.75
2022-12-07T19:59:57.142Z,2.83
2022-12-07T20:02:24.869Z,2.95
2022-12-07T20:04:52.573Z,2.93
2022-12-07T20:07:20.365Z,2.96
2022-12-07T20:09:48.157Z,3.00
2022-12-07T20:12:34.815Z,2.99
2022-12-07T20:15:02.924Z,2.77
2022-12-07T20:17:30.905Z,2.93
2022-12-07T20:19:58.736Z,2.91
2022-12-07T20:22:26.403Z,3.02
2022-12-07T20:24:54.019Z,2.85
2022-12-07T20:27:22.924Z,2.88
2022-12-07T20:29:50.816Z,2.69
2022-12-07T20:32:18.530Z,2.67
2022-12-07T20:34:46.810Z,2.91
2022-12-07T20:37:14.616Z,3.10
2022-12-07T20:39:42.328Z,3.03
2022-12-07T20:42:27.715Z,2.99
2022-12-07T20:45:01.319Z,3.07
2022-12-07T20:47:30.788Z,3.10
2022-12-07T20:49:58.405Z,3.06
2022-12-07T20:52:26.054Z,3.31
2022-12-07T20:54:53.630Z,3.09
2022-12-07T20:57:21.201Z,3.24
2022-12-07T20:59:48.843Z,3.10
2022-12-07T21:02:17.839Z,3.17
2022-12-07T21:04:45.690Z,3.03
2022-12-07T21:07:13.256Z,3.20
2022-12-07T21:09:40.853Z,3.24
2022-12-07T21:12:11.238Z,3.39
2022-12-07T21:14:40.646Z,3.40
2022-12-07T21:17:08.659Z,3.27
2022-12-07T21:19:38.331Z,3.44
2022-12-07T21:22:06.371Z,3.53
2022-12-07T21:24:33.986Z,3.56
2022-12-07T21:27:01.570Z,3.63
2022-12-07T21:29:42.690Z,3.66
2022-12-07T21:32:11.386Z,3.65
2022-12-07T21:34:40.323Z,3.67
2022-12-07T21:37:08.052Z,3.71
2022-12-07T21:39:35.819Z,3.64
2022-12-07T21:42:03.460Z,3.51
2022-12-07T21:44:31.062Z,3.44
2022-12-07T21:47:00.515Z,3.59
2022-12-07T21:49:28.283Z,3.62
2022-12-07T21:51:57.249Z,3.64
2022-12-07T21:54:26.198Z,3.45
2022-12-07T21:56:54.096Z,3.08
2022-12-07T21:59:21.957Z,3.38
2022-12-07T22:01:51.551Z,3.40
2022-12-07T22:04:21.484Z,3.37
2022-12-07T22:06:49.469Z,3.53
2022-12-07T22:09:19.680Z,3.51
2022-12-07T22:11:47.851Z,3.63
2022-12-07T22:14:33.193Z,3.50
2022-12-07T22:17:01.005Z,3.50
2022-12-07T22:19:28.611Z,3.49
2022-12-07T22:21:56.251Z,3.31
2022-12-07T22:24:25.135Z,3.09
2022-12-07T22:26:52.798Z,2.90
2022-12-07T22:29:20.835Z,3.03
2022-12-07T22:31:53.465Z,3.11
2022-12-07T22:34:21.746Z,2.80
2022-12-07T22:36:49.534Z,2.81
2022-12-07T22:39:17.159Z,2.68
2022-12-07T22:41:46.162Z,2.91
2022-12-07T22:44:13.732Z,2.93
2022-12-07T22:46:41.632Z,2.89
2022-12-07T22:49:09.277Z,2.82
2022-12-07T22:51:38.808Z,2.92
2022-12-07T22:54:08.388Z,2.90
2022-12-07T22:56:37.712Z,3.07
2022-12-07T22:59:07.533Z,2.91
2022-12-07T23:01:36.090Z,2.99
2022-12-07T23:04:03.915Z,3.04
2022-12-07T23:06:34.477Z,3.22
2022-12-07T23:09:04.355Z,3.16
2022-12-07T23:11:51.759Z,3.01
2022-12-07T23:14:23.239Z,2.85
2022-12-07T23:16:50.873Z,2.89
2022-12-07T23:19:18.599Z,2.95
2022-12-07T23:21:46.774Z,2.97
2022-12-07T23:24:15.231Z,3.00
2022-12-07T23:26:43.712Z,2.90
2022-12-07T23:29:16.920Z,3.01
2022-12-07T23:31:46.984Z,3.04
2022-12-07T23:34:15.147Z,3.05
2022-12-07T23:36:42.773Z,3.07
2022-12-07T23:39:11.903Z,3.27
2022-12-07T23:41:39.536Z,3.37
2022-12-07T23:44:07.130Z,3.37
2022-12-07T23:46:35.173Z,3.37
2022-12-07T23:49:05.863Z,3.20
2022-12-07T23:51:33.829Z,3.49
2022-12-07T23:54:01.937Z,3.60
2022-12-07T23:56:31.306Z,3.57
2022-12-07T23:58:59.709Z,3.31
